Terminal Aerodrome Forecast
Issued by NWS

Home | Current Version | Previous Version | Text Only | Print | Product List | Glossary On
Versions: 1 2 3 4 5 6 7 8 9 10 11 12 13 14 15 16 17 18 19 20
000
FTUS44 KTSA 050400 AAA
TAFXNA
TAF AMD
KXNA 050406Z 0504/0524 03010KT 4SM -SN BR BKN040 OVC080
     FM050600 03009KT P6SM OVC050
     FM050900 01005KT P6SM BKN100
     FM051200 03004KT P6SM BKN200=

USA.gov is the U.S. government's official web portal to all federal, state and local government web resources and services.